Time,TemperatureF,DewpointF,PressureIn,WindDirection,WindDirectionDegrees,WindSpeedMPH,WindSpeedGustMPH,Humidity,HourlyPrecipIn,Conditions,Clouds,dailyrainin,SoftwareType,DateUTC
2013-04-01 00:00:00,35.8,23.3,30.01,SE,135,1.6,3.8,60,0.00,,,0.00,pywws,2013-03-31 23:00:00,
2013-04-01 00:10:00,35.8,23.3,30.01,SE,135,2.2,4.5,60,0.00,,,0.00,pywws,2013-03-31 23:10:00,
2013-04-01 00:20:00,35.6,23.5,30.01,East,90,3.1,5.4,61,0.00,,,0.00,pywws,2013-03-31 23:20:00,
2013-04-01 00:30:00,35.4,23.3,30.01,East,90,4.5,8.3,61,0.00,,,0.00,pywws,2013-03-31 23:30:00,
2013-04-01 00:40:00,35.4,23.3,30.02,East,90,3.8,6.9,61,0.00,,,0.00,pywws,2013-03-31 23:40:00,
2013-04-01 00:50:00,35.4,23.3,30.01,East,90,4.5,7.6,61,0.00,,,0.00,pywws,2013-03-31 23:50:00,
2013-04-01 00:51:00,35.4,23.7,30.01,SE,135,4.5,7.6,62,0.00,,,0.00,pywws,2013-03-31 23:51:00,
2013-04-01 01:01:00,35.6,23.9,30.01,SE,135,3.8,7.6,62,0.00,,,0.00,pywws,2013-04-01 00:01:00,
2013-04-01 01:10:00,35.6,23.9,30.01,SE,135,3.8,6.0,62,0.00,,,0.00,pywws,2013-04-01 00:10:00,
2013-04-01 01:20:00,35.4,23.7,30.02,SE,135,3.1,5.4,62,0.00,,,0.00,pywws,2013-04-01 00:20:00,
2013-04-01 01:30:00,35.4,23.7,30.01,SE,135,3.1,5.4,62,0.00,,,0.00,pywws,2013-04-01 00:30:00,
2013-04-01 01:40:00,35.2,23.2,30.01,East,90,4.5,6.9,61,0.00,,,0.00,pywws,2013-04-01 00:40:00,
2013-04-01 01:50:00,34.9,23.2,30.01,East,90,1.6,3.8,62,0.00,,,0.00,pywws,2013-04-01 00:50:00,
2013-04-01 02:00:00,34.7,23.0,30.01,East,90,3.8,5.4,62,0.00,,,0.00,pywws,2013-04-01 01:00:00,
2013-04-01 02:10:00,34.5,22.9,30.01,East,90,3.1,5.4,62,0.00,,,0.00,pywws,2013-04-01 01:10:00,
2013-04-01 02:20:00,34.5,23.2,30.01,SE,135,3.1,3.8,63,0.00,,,0.00,pywws,2013-04-01 01:20:00,
2013-04-01 02:30:00,34.5,23.2,30.01,East,90,5.4,7.6,63,0.00,,,0.00,pywws,2013-04-01 01:30:00,
2013-04-01 02:40:00,34.7,23.4,30.01,East,90,3.8,9.2,63,0.00,,,0.00,pywws,2013-04-01 01:40:00,
2013-04-01 02:50:00,34.7,23.4,30.01,East,90,3.1,4.5,63,0.00,,,0.00,pywws,2013-04-01 01:50:00,
2013-04-01 03:00:00,34.7,23.4,30.01,ESE,112,1.6,3.1,63,0.00,,,0.00,pywws,2013-04-01 02:00:00,
2013-04-01 03:10:00,34.7,23.4,30.01,East,90,5.4,9.2,63,0.00,,,0.00,pywws,2013-04-01 02:10:00,
2013-04-01 03:20:00,34.9,23.6,30.01,East,90,3.8,8.3,63,0.00,,,0.00,pywws,2013-04-01 02:20:00,
2013-04-01 03:30:00,35.1,23.4,30.01,NE,45,3.1,5.4,62,0.00,,,0.00,pywws,2013-04-01 02:30:00,
2013-04-01 03:40:00,35.1,23.4,30.01,SE,135,5.4,7.6,62,0.00,,,0.00,pywws,2013-04-01 02:40:00,
2013-04-01 03:50:00,34.9,23.2,30.01,East,90,4.5,7.6,62,0.00,,,0.00,pywws,2013-04-01 02:50:00,
2013-04-01 04:00:00,34.7,23.0,30.01,East,90,2.2,4.5,62,0.00,,,0.00,pywws,2013-04-01 03:00:00,
2013-04-01 04:10:00,34.7,23.0,30.01,East,90,3.8,8.3,62,0.00,,,0.00,pywws,2013-04-01 03:10:00,
2013-04-01 04:20:00,34.9,23.2,30.00,East,90,2.2,3.8,62,0.00,,,0.00,pywws,2013-04-01 03:20:00,
2013-04-01 04:30:00,34.9,23.2,30.01,North,-999,4.5,6.9,62,0.00,,,0.00,pywws,2013-04-01 03:30:00,
2013-04-01 04:40:00,34.9,22.8,30.01,North,-999,3.1,6.0,61,0.00,,,0.00,pywws,2013-04-01 03:40:00,
2013-04-01 04:50:00,34.9,22.8,30.01,East,90,1.6,3.8,61,0.00,,,0.00,pywws,2013-04-01 03:50:00,
2013-04-01 05:00:00,34.9,22.8,30.01,SE,135,1.6,3.8,61,0.00,,,0.00,pywws,2013-04-01 04:00:00,
2013-04-01 05:01:00,34.9,22.8,30.00,SE,135,0.7,2.2,61,0.00,,,0.00,pywws,2013-04-01 04:01:00,
2013-04-01 05:11:00,35.1,23.0,30.01,East,90,1.6,2.2,61,0.00,,,0.00,pywws,2013-04-01 04:11:00,
2013-04-01 05:20:00,35.2,23.2,30.01,SE,135,1.6,3.1,61,0.00,,,0.00,pywws,2013-04-01 04:20:00,
2013-04-01 05:30:00,35.4,23.3,30.00,NE,45,0.7,1.6,61,0.00,,,0.00,pywws,2013-04-01 04:30:00,
2013-04-01 05:40:00,35.8,23.7,30.00,NE,45,1.6,3.8,61,0.00,,,0.00,pywws,2013-04-01 04:40:00,
2013-04-01 05:50:00,36.0,23.8,30.00,East,90,0.7,2.2,61,0.00,,,0.00,pywws,2013-04-01 04:50:00,
2013-04-01 05:51:00,36.1,24.0,30.01,North,0,0.0,1.6,61,0.00,,,0.00,pywws,2013-04-01 04:51:00,
2013-04-01 06:01:00,36.1,24.0,30.01,NW,315,1.6,3.1,61,0.00,,,0.00,pywws,2013-04-01 05:01:00,
2013-04-01 06:10:00,36.1,24.0,30.01,NE,45,0.0,0.0,61,0.00,,,0.00,pywws,2013-04-01 05:10:00,
2013-04-01 06:20:00,36.1,24.0,30.01,North,0,1.6,3.1,61,0.00,,,0.00,pywws,2013-04-01 05:20:00,
2013-04-01 06:30:00,36.1,24.0,30.01,East,90,0.7,3.8,61,0.00,,,0.00,pywws,2013-04-01 05:30:00,
2013-04-01 06:40:00,36.1,24.0,30.01,East,90,0.7,2.2,61,0.00,,,0.00,pywws,2013-04-01 05:40:00,
2013-04-01 06:50:00,36.1,24.0,30.01,NE,45,1.6,3.1,61,0.00,,,0.00,pywws,2013-04-01 05:50:00,
2013-04-01 07:00:00,36.3,23.8,30.01,NE,45,1.6,3.8,60,0.00,,,0.00,pywws,2013-04-01 06:00:00,
2013-04-01 07:10:00,36.5,24.0,30.01,NE,45,2.2,5.4,60,0.00,,,0.00,pywws,2013-04-01 06:10:00,
2013-04-01 07:20:00,36.5,23.6,30.01,NE,45,0.7,3.1,59,0.00,,,0.00,pywws,2013-04-01 06:20:00,
2013-04-01 07:30:00,36.7,23.7,30.02,NNE,22,1.6,3.1,59,0.00,,,0.00,pywws,2013-04-01 06:30:00,
2013-04-01 07:40:00,36.7,23.7,30.02,NE,45,1.6,3.1,59,0.00,,,0.00,pywws,2013-04-01 06:40:00,
2013-04-01 07:50:00,36.9,23.9,30.02,NE,45,0.7,3.8,59,0.00,,,0.00,pywws,2013-04-01 06:50:00,
2013-04-01 08:00:00,36.9,23.9,30.02,NE,45,1.6,3.1,59,0.00,,,0.00,pywws,2013-04-01 07:00:00,
2013-04-01 08:10:00,37.0,23.7,30.02,East,90,6.0,10.7,58,0.00,,,0.00,pywws,2013-04-01 07:10:00,
2013-04-01 08:20:00,37.6,24.2,30.02,NE,45,3.1,4.5,58,0.00,,,0.00,pywws,2013-04-01 07:20:00,
2013-04-01 08:30:00,37.9,24.1,30.03,East,90,4.5,8.3,57,0.00,,,0.00,pywws,2013-04-01 07:30:00,
2013-04-01 08:40:00,38.1,23.8,30.03,East,90,4.5,8.3,56,0.00,,,0.00,pywws,2013-04-01 07:40:00,
2013-04-01 08:50:00,38.5,23.7,30.03,SE,135,3.1,5.4,55,0.00,,,0.00,pywws,2013-04-01 07:50:00,
2013-04-01 09:00:00,38.7,23.9,30.03,NE,45,4.5,6.0,55,0.00,,,0.00,pywws,2013-04-01 08:00:00,
2013-04-01 09:10:00,39.0,23.8,30.03,SE,135,6.9,8.3,54,0.00,,,0.00,pywws,2013-04-01 08:10:00,
2013-04-01 09:20:00,39.2,24.0,30.03,NE,45,4.5,8.3,54,0.00,,,0.00,pywws,2013-04-01 08:20:00,
2013-04-01 09:30:00,39.4,23.7,30.03,NE,45,3.1,5.4,53,0.00,,,0.00,pywws,2013-04-01 08:30:00,
2013-04-01 09:40:00,39.7,24.5,30.03,SSE,158,5.4,7.6,54,0.00,,,0.00,pywws,2013-04-01 08:40:00,
2013-04-01 09:50:00,39.9,24.2,30.04,East,90,3.8,5.4,53,0.00,,,0.00,pywws,2013-04-01 08:50:00,
2013-04-01 10:00:00,40.1,24.4,30.04,NE,45,6.9,11.4,53,0.00,,,0.00,pywws,2013-04-01 09:00:00,
2013-04-01 10:10:00,40.3,24.5,30.04,ENE,68,4.5,7.6,53,0.00,,,0.00,pywws,2013-04-01 09:10:00,
2013-04-01 10:20:00,40.5,24.2,30.04,East,90,3.1,5.4,52,0.00,,,0.00,pywws,2013-04-01 09:20:00,
2013-04-01 10:30:00,40.6,24.4,30.04,East,90,3.8,6.0,52,0.00,,,0.00,pywws,2013-04-01 09:30:00,
2013-04-01 10:40:00,40.8,24.6,30.05,East,90,5.4,9.2,52,0.00,,,0.00,pywws,2013-04-01 09:40:00,
2013-04-01 10:50:00,41.0,24.3,30.04,East,90,3.1,6.0,51,0.00,,,0.00,pywws,2013-04-01 09:50:00,
2013-04-01 10:51:00,41.4,24.6,30.04,East,90,3.1,5.4,51,0.00,,,0.00,pywws,2013-04-01 09:51:00,
2013-04-01 11:01:00,41.7,24.9,30.04,SE,135,5.4,8.3,51,0.00,,,0.00,pywws,2013-04-01 10:01:00,
2013-04-01 11:10:00,42.3,25.0,30.04,East,90,4.5,6.9,50,0.00,,,0.00,pywws,2013-04-01 10:10:00,
2013-04-01 11:20:00,42.3,24.5,30.04,SE,135,4.5,6.9,49,0.00,,,0.00,pywws,2013-04-01 10:20:00,
2013-04-01 11:30:00,42.4,25.1,30.05,East,90,6.0,9.8,50,0.00,,,0.00,pywws,2013-04-01 10:30:00,
2013-04-01 11:40:00,42.8,25.0,30.05,East,90,6.0,10.7,49,0.00,,,0.00,pywws,2013-04-01 10:40:00,
2013-04-01 11:50:00,42.8,25.0,30.05,North,-999,4.5,6.9,49,0.00,,,0.00,pywws,2013-04-01 10:50:00,
2013-04-01 11:51:00,43.0,24.6,30.05,NE,45,6.0,11.4,48,0.00,,,0.00,pywws,2013-04-01 10:51:00,
2013-04-01 12:01:00,43.0,24.6,30.05,SE,135,6.0,13.0,48,0.00,,,0.00,pywws,2013-04-01 11:01:00,
2013-04-01 12:10:00,43.0,24.1,30.05,East,90,6.0,9.8,47,0.00,,,0.00,pywws,2013-04-01 11:10:00,
2013-04-01 12:20:00,42.8,24.0,30.05,East,90,3.8,6.9,47,0.00,,,0.00,pywws,2013-04-01 11:20:00,
2013-04-01 12:30:00,43.0,24.6,30.05,East,90,6.9,11.4,48,0.00,,,0.00,pywws,2013-04-01 11:30:00,
2013-04-01 12:40:00,43.2,24.8,30.05,East,90,6.0,12.1,48,0.00,,,0.00,pywws,2013-04-01 11:40:00,
2013-04-01 12:50:00,43.5,25.1,30.05,East,90,6.9,11.4,48,0.00,,,0.00,pywws,2013-04-01 11:50:00,
2013-04-01 13:00:00,43.7,25.3,30.05,East,90,3.8,9.2,48,0.00,,,0.00,pywws,2013-04-01 12:00:00,
2013-04-01 13:10:00,44.4,25.5,30.06,East,90,6.9,9.8,47,0.00,,,0.00,pywws,2013-04-01 12:10:00,
2013-04-01 13:20:00,45.3,26.3,30.06,East,90,4.5,6.9,47,0.00,,,0.00,pywws,2013-04-01 12:20:00,
2013-04-01 13:30:00,45.7,25.6,30.05,East,90,4.5,6.9,45,0.00,,,0.00,pywws,2013-04-01 12:30:00,
2013-04-01 13:40:00,45.9,25.2,30.06,East,90,5.4,13.0,44,0.00,,,0.00,pywws,2013-04-01 12:40:00,
2013-04-01 13:50:00,45.9,25.2,30.05,East,90,6.9,11.4,44,0.00,,,0.00,pywws,2013-04-01 12:50:00,
2013-04-01 13:51:00,45.9,25.7,30.05,NNE,22,5.4,8.3,45,0.00,,,0.00,pywws,2013-04-01 12:51:00,
2013-04-01 14:01:00,46.0,25.4,30.06,NE,45,3.1,6.0,44,0.00,,,0.00,pywws,2013-04-01 13:01:00,
2013-04-01 14:10:00,46.2,25.5,30.06,East,90,6.9,10.7,44,0.00,,,0.00,pywws,2013-04-01 13:10:00,
2013-04-01 14:20:00,46.2,25.5,30.05,NE,45,5.4,9.2,44,0.00,,,0.00,pywws,2013-04-01 13:20:00,
2013-04-01 14:30:00,46.0,25.4,30.05,East,90,3.1,7.6,44,0.00,,,0.00,pywws,2013-04-01 13:30:00,
2013-04-01 14:40:00,45.9,25.2,30.05,East,90,3.8,6.0,44,0.00,,,0.00,pywws,2013-04-01 13:40:00,
2013-04-01 14:50:00,45.9,26.3,30.05,NE,45,4.5,9.8,46,0.00,,,0.00,pywws,2013-04-01 13:50:00,
2013-04-01 14:51:00,45.7,25.6,30.05,East,90,5.4,8.3,45,0.00,,,0.00,pywws,2013-04-01 13:51:00,
2013-04-01 15:01:00,45.9,25.7,30.05,East,90,2.2,7.6,45,0.00,,,0.00,pywws,2013-04-01 14:01:00,
2013-04-01 15:10:00,45.7,25.0,30.05,East,90,8.3,12.1,44,0.00,,,0.00,pywws,2013-04-01 14:10:00,
2013-04-01 15:20:00,45.7,25.0,30.05,East,90,4.5,8.3,44,0.00,,,0.00,pywws,2013-04-01 14:20:00,
2013-04-01 15:30:00,45.7,25.0,30.05,East,90,6.0,9.2,44,0.00,,,0.00,pywws,2013-04-01 14:30:00,
2013-04-01 15:40:00,45.7,25.6,30.05,NE,45,6.9,13.0,45,0.00,,,0.00,pywws,2013-04-01 14:40:00,
2013-04-01 15:50:00,45.3,25.2,30.05,NE,45,6.9,10.7,45,0.00,,,0.00,pywws,2013-04-01 14:50:00,
2013-04-01 16:00:00,45.3,25.8,30.05,NE,45,5.4,8.3,46,0.00,,,0.00,pywws,2013-04-01 15:00:00,
2013-04-01 16:10:00,45.3,25.2,30.05,SE,135,6.9,9.8,45,0.00,,,0.00,pywws,2013-04-01 15:10:00,
2013-04-01 16:20:00,45.1,24.5,30.06,NE,45,5.4,9.2,44,0.00,,,0.00,pywws,2013-04-01 15:20:00,
2013-04-01 16:30:00,44.8,24.2,30.05,NE,45,5.4,7.6,44,0.00,,,0.00,pywws,2013-04-01 15:30:00,
2013-04-01 16:40:00,44.6,24.6,30.05,East,90,3.1,4.5,45,0.00,,,0.00,pywws,2013-04-01 15:40:00,
2013-04-01 16:50:00,44.4,24.4,30.05,East,90,4.5,7.6,45,0.00,,,0.00,pywws,2013-04-01 15:50:00,
2013-04-01 17:00:00,44.2,24.8,30.04,SE,135,3.8,6.9,46,0.00,,,0.00,pywws,2013-04-01 16:00:00,
2013-04-01 17:10:00,43.9,24.5,30.04,NE,45,6.0,12.1,46,0.00,,,0.00,pywws,2013-04-01 16:10:00,
2013-04-01 17:20:00,43.5,24.1,30.05,NE,45,4.5,9.2,46,0.00,,,0.00,pywws,2013-04-01 16:20:00,
2013-04-01 17:30:00,43.2,23.8,30.05,NE,45,4.5,6.9,46,0.00,,,0.00,pywws,2013-04-01 16:30:00,
2013-04-01 17:40:00,42.8,24.0,30.05,East,90,4.5,7.6,47,0.00,,,0.00,pywws,2013-04-01 16:40:00,
2013-04-01 17:50:00,42.6,23.8,30.05,East,90,6.9,9.2,47,0.00,,,0.00,pywws,2013-04-01 16:50:00,
2013-04-01 17:51:00,42.4,23.7,30.04,SE,135,3.8,7.6,47,0.00,,,0.00,pywws,2013-04-01 16:51:00,
2013-04-01 18:01:00,42.4,24.2,30.04,East,90,6.0,11.4,48,0.00,,,0.00,pywws,2013-04-01 17:01:00,
2013-04-01 18:10:00,42.3,24.0,30.04,East,90,6.0,9.2,48,0.00,,,0.00,pywws,2013-04-01 17:10:00,
2013-04-01 18:20:00,41.5,23.3,30.05,East,90,4.5,6.0,48,0.00,,,0.00,pywws,2013-04-01 17:20:00,
2013-04-01 18:30:00,41.9,24.1,30.05,East,90,3.8,6.9,49,0.00,,,0.00,pywws,2013-04-01 17:30:00,
2013-04-01 18:40:00,41.5,23.8,30.05,East,90,4.5,9.8,49,0.00,,,0.00,pywws,2013-04-01 17:40:00,
2013-04-01 18:50:00,41.4,23.7,30.05,East,90,4.5,8.3,49,0.00,,,0.00,pywws,2013-04-01 17:50:00,
2013-04-01 18:51:00,41.2,24.0,30.06,East,90,4.5,9.2,50,0.00,,,0.00,pywws,2013-04-01 17:51:00,
2013-04-01 19:01:00,41.2,24.0,30.06,NE,45,6.0,9.2,50,0.00,,,0.00,pywws,2013-04-01 18:01:00,
2013-04-01 19:10:00,41.0,23.8,30.06,East,90,5.4,7.6,50,0.00,,,0.00,pywws,2013-04-01 18:10:00,
2013-04-01 19:20:00,40.6,23.9,30.06,NE,45,4.5,7.6,51,0.00,,,0.00,pywws,2013-04-01 18:20:00,
2013-04-01 19:21:00,40.5,23.8,30.06,NE,45,4.5,6.9,51,0.00,,,0.00,pywws,2013-04-01 18:21:00,
2013-04-01 19:31:00,40.5,23.8,30.06,East,90,3.8,6.0,51,0.00,,,0.00,pywws,2013-04-01 18:31:00,
2013-04-01 19:40:00,40.3,24.1,30.06,East,90,3.1,5.4,52,0.00,,,0.00,pywws,2013-04-01 18:40:00,
2013-04-01 19:50:00,40.3,24.1,30.06,NE,45,2.2,3.8,52,0.00,,,0.00,pywws,2013-04-01 18:50:00,
2013-04-01 20:00:00,40.1,23.9,30.06,NE,45,4.5,6.9,52,0.00,,,0.00,pywws,2013-04-01 19:00:00,
2013-04-01 20:10:00,39.9,23.7,30.07,NE,45,2.2,3.1,52,0.00,,,0.00,pywws,2013-04-01 19:10:00,
2013-04-01 20:20:00,39.7,23.6,30.07,East,90,5.4,7.6,52,0.00,,,0.00,pywws,2013-04-01 19:20:00,
2013-04-01 20:30:00,39.7,23.6,30.07,East,90,1.6,4.5,52,0.00,,,0.00,pywws,2013-04-01 19:30:00,
2013-04-01 20:40:00,39.6,23.9,30.07,NE,45,2.2,4.5,53,0.00,,,0.00,pywws,2013-04-01 19:40:00,
2013-04-01 20:50:00,39.6,23.9,30.07,East,90,1.6,3.1,53,0.00,,,0.00,pywws,2013-04-01 19:50:00,
2013-04-01 20:51:00,39.6,23.9,30.07,NE,45,2.2,3.8,53,0.00,,,0.00,pywws,2013-04-01 19:51:00,
2013-04-01 21:01:00,39.6,23.9,30.08,East,90,1.6,3.8,53,0.00,,,0.00,pywws,2013-04-01 20:01:00,
2013-04-01 21:10:00,39.4,23.7,30.07,East,90,3.8,6.0,53,0.00,,,0.00,pywws,2013-04-01 20:10:00,
2013-04-01 21:20:00,39.2,23.5,30.07,East,90,3.1,6.9,53,0.00,,,0.00,pywws,2013-04-01 20:20:00,
2013-04-01 21:30:00,39.0,23.8,30.08,East,90,1.6,2.2,54,0.00,,,0.00,pywws,2013-04-01 20:30:00,
2013-04-01 21:40:00,38.8,23.6,30.08,NE,45,2.2,3.8,54,0.00,,,0.00,pywws,2013-04-01 20:40:00,
2013-04-01 21:50:00,38.7,23.9,30.08,East,90,0.7,3.1,55,0.00,,,0.00,pywws,2013-04-01 20:50:00,
2013-04-01 22:00:00,38.7,23.9,30.08,NE,45,2.2,4.5,55,0.00,,,0.00,pywws,2013-04-01 21:00:00,
2013-04-01 22:10:00,38.7,23.9,30.09,North,0,2.2,3.8,55,0.00,,,0.00,pywws,2013-04-01 21:10:00,
2013-04-01 22:20:00,38.7,23.9,30.09,NE,45,2.2,4.5,55,0.00,,,0.00,pywws,2013-04-01 21:20:00,
2013-04-01 22:30:00,38.5,23.7,30.09,North,0,0.7,2.2,55,0.00,,,0.00,pywws,2013-04-01 21:30:00,
2013-04-01 22:40:00,38.7,24.3,30.08,NW,315,2.2,5.4,56,0.00,,,0.00,pywws,2013-04-01 21:40:00,
2013-04-01 22:50:00,38.5,24.2,30.09,NE,45,0.7,2.2,56,0.00,,,0.00,pywws,2013-04-01 21:50:00,
2013-04-01 22:51:00,38.7,24.3,30.08,NW,315,0.7,2.2,56,0.00,,,0.00,pywws,2013-04-01 21:51:00,
2013-04-01 23:01:00,38.7,24.3,30.09,NE,45,0.7,3.8,56,0.00,,,0.00,pywws,2013-04-01 22:01:00,
2013-04-01 23:10:00,38.5,24.2,30.08,East,90,1.6,3.1,56,0.00,,,0.00,pywws,2013-04-01 22:10:00,
2013-04-01 23:20:00,38.7,24.3,30.08,North,0,0.0,1.6,56,0.00,,,0.00,pywws,2013-04-01 22:20:00,
2013-04-01 23:30:00,38.7,24.3,30.09,North,0,0.7,3.1,56,0.00,,,0.00,pywws,2013-04-01 22:30:00,
2013-04-01 23:40:00,38.7,24.3,30.09,NE,45,2.2,5.4,56,0.00,,,0.00,pywws,2013-04-01 22:40:00,
2013-04-01 23:50:00,38.8,24.5,30.09,NE,45,0.7,3.1,56,0.00,,,0.00,pywws,2013-04-01 22:50:00,